sensor_id;sensor_type;location;lat;lon;timestamp;pressure;altitude;pressure_sealevel;temperature
4421;BMP180;11824;51.178;13.546;2023-04-24T00:00:33;99032.00;;;12.10
4421;BMP180;11824;51.178;13.546;2023-04-24T00:03:01;99051.00;;;12.10
4421;BMP180;11824;51.178;13.546;2023-04-24T00:05:30;99043.00;;;12.10
4421;BMP180;11824;51.178;13.546;2023-04-24T00:07:57;99051.00;;;12.10
4421;BMP180;11824;51.178;13.546;2023-04-24T00:10:25;99044.00;;;12.10
4421;BMP180;11824;51.178;13.546;2023-04-24T00:12:52;99039.00;;;12.10
4421;BMP180;11824;51.178;13.546;2023-04-24T00:15:20;99042.00;;;12.20
4421;BMP180;11824;51.178;13.546;2023-04-24T00:17:47;99041.00;;;12.20
4421;BMP180;11824;51.178;13.546;2023-04-24T00:20:15;99039.00;;;12.20
4421;BMP180;11824;51.178;13.546;2023-04-24T00:22:43;99039.00;;;12.20
4421;BMP180;11824;51.178;13.546;2023-04-24T00:25:11;99042.00;;;12.10
4421;BMP180;11824;51.178;13.546;2023-04-24T00:27:38;99038.00;;;12.10
4421;BMP180;11824;51.178;13.546;2023-04-24T00:30:06;99039.00;;;12.10
4421;BMP180;11824;51.178;13.546;2023-04-24T00:32:34;99042.00;;;12.10
4421;BMP180;11824;51.178;13.546;2023-04-24T00:35:01;99044.00;;;12.10
4421;BMP180;11824;51.178;13.546;2023-04-24T00:37:29;99050.00;;;12.10
4421;BMP180;11824;51.178;13.546;2023-04-24T00:39:57;99042.00;;;12.10
4421;BMP180;11824;51.178;13.546;2023-04-24T00:42:24;99029.00;;;12.10
4421;BMP180;11824;51.178;13.546;2023-04-24T00:44:52;99038.00;;;12.10
4421;BMP180;11824;51.178;13.546;2023-04-24T00:47:20;99033.00;;;12.10
4421;BMP180;11824;51.178;13.546;2023-04-24T00:49:48;99028.00;;;12.10
4421;BMP180;11824;51.178;13.546;2023-04-24T00:52:16;99033.00;;;12.20
4421;BMP180;11824;51.178;13.546;2023-04-24T00:54:50;99030.00;;;12.10
4421;BMP180;11824;51.178;13.546;2023-04-24T00:57:18;99030.00;;;12.20
4421;BMP180;11824;51.178;13.546;2023-04-24T00:59:46;99013.00;;;12.20
4421;BMP180;11824;51.178;13.546;2023-04-24T01:02:14;99012.00;;;12.20
4421;BMP180;11824;51.178;13.546;2023-04-24T01:04:42;99017.00;;;12.20
4421;BMP180;11824;51.178;13.546;2023-04-24T01:07:10;99021.00;;;12.20
4421;BMP180;11824;51.178;13.546;2023-04-24T01:09:39;99015.00;;;12.20
4421;BMP180;11824;51.178;13.546;2023-04-24T01:12:07;99026.00;;;12.20
4421;BMP180;11824;51.178;13.546;2023-04-24T01:14:37;99018.00;;;12.20
4421;BMP180;11824;51.178;13.546;2023-04-24T01:17:04;99019.00;;;12.20
4421;BMP180;11824;51.178;13.546;2023-04-24T01:19:32;99024.00;;;12.20
4421;BMP180;11824;51.178;13.546;2023-04-24T01:22:02;99014.00;;;12.20
4421;BMP180;11824;51.178;13.546;2023-04-24T01:24:31;99012.00;;;12.20
4421;BMP180;11824;51.178;13.546;2023-04-24T01:26:58;99019.00;;;12.20
4421;BMP180;11824;51.178;13.546;2023-04-24T01:29:27;99017.00;;;12.20
4421;BMP180;11824;51.178;13.546;2023-04-24T01:31:55;99013.00;;;12.20
4421;BMP180;11824;51.178;13.546;2023-04-24T01:34:25;99022.00;;;12.20
4421;BMP180;11824;51.178;13.546;2023-04-24T01:36:52;99030.00;;;12.20
4421;BMP180;11824;51.178;13.546;2023-04-24T01:39:20;99025.00;;;12.20
4421;BMP180;11824;51.178;13.546;2023-04-24T01:41:50;99029.00;;;12.20
4421;BMP180;11824;51.178;13.546;2023-04-24T01:44:18;99023.00;;;12.20
4421;BMP180;11824;51.178;13.546;2023-04-24T01:46:45;99017.00;;;12.20
4421;BMP180;11824;51.178;13.546;2023-04-24T01:49:13;99011.00;;;12.20
4421;BMP180;11824;51.178;13.546;2023-04-24T01:51:40;99015.00;;;12.20
4421;BMP180;11824;51.178;13.546;2023-04-24T01:54:07;99012.00;;;12.20
4421;BMP180;11824;51.178;13.546;2023-04-24T01:56:35;99016.00;;;12.20
4421;BMP180;11824;51.178;13.546;2023-04-24T01:59:04;99014.00;;;12.20
4421;BMP180;11824;51.178;13.546;2023-04-24T02:01:35;99013.00;;;12.20
4421;BMP180;11824;51.178;13.546;2023-04-24T02:04:03;99003.00;;;12.20
4421;BMP180;11824;51.178;13.546;2023-04-24T02:06:30;99015.00;;;12.20
4421;BMP180;11824;51.178;13.546;2023-04-24T02:08:58;99018.00;;;12.20
4421;BMP180;11824;51.178;13.546;2023-04-24T02:11:26;99016.00;;;12.20
4421;BMP180;11824;51.178;13.546;2023-04-24T02:13:53;99016.00;;;12.10
4421;BMP180;11824;51.178;13.546;2023-04-24T02:16:21;99017.00;;;12.20
4421;BMP180;11824;51.178;13.546;2023-04-24T02:18:49;99014.00;;;12.20
4421;BMP180;11824;51.178;13.546;2023-04-24T02:21:17;99021.00;;;12.20
4421;BMP180;11824;51.178;13.546;2023-04-24T02:23:44;99010.00;;;12.20
4421;BMP180;11824;51.178;13.546;2023-04-24T02:26:12;99019.00;;;12.30
4421;BMP180;11824;51.178;13.546;2023-04-24T02:28:39;99015.00;;;12.30
4421;BMP180;11824;51.178;13.546;2023-04-24T02:31:06;99018.00;;;12.30
4421;BMP180;11824;51.178;13.546;2023-04-24T02:33:34;99007.00;;;12.40
4421;BMP180;11824;51.178;13.546;2023-04-24T02:36:02;99016.00;;;12.40
4421;BMP180;11824;51.178;13.546;2023-04-24T02:38:30;99014.00;;;12.50
4421;BMP180;11824;51.178;13.546;2023-04-24T02:40:57;99014.00;;;12.50
4421;BMP180;11824;51.178;13.546;2023-04-24T02:43:25;99008.00;;;12.50
4421;BMP180;11824;51.178;13.546;2023-04-24T02:45:52;99020.00;;;12.50
4421;BMP180;11824;51.178;13.546;2023-04-24T02:48:20;99013.00;;;12.60
4421;BMP180;11824;51.178;13.546;2023-04-24T02:50:48;99015.00;;;12.60
4421;BMP180;11824;51.178;13.546;2023-04-24T02:53:16;99014.00;;;12.60
4421;BMP180;11824;51.178;13.546;2023-04-24T02:55:43;99009.00;;;12.50
4421;BMP180;11824;51.178;13.546;2023-04-24T02:58:11;99013.00;;;12.50
4421;BMP180;11824;51.178;13.546;2023-04-24T03:00:39;99004.00;;;12.50
4421;BMP180;11824;51.178;13.546;2023-04-24T03:03:07;99002.00;;;12.50
4421;BMP180;11824;51.178;13.546;2023-04-24T03:05:34;98999.00;;;12.50
4421;BMP180;11824;51.178;13.546;2023-04-24T03:08:03;99009.00;;;12.40
4421;BMP180;11824;51.178;13.546;2023-04-24T03:10:30;99006.00;;;12.40
4421;BMP180;11824;51.178;13.546;2023-04-24T03:12:58;99003.00;;;12.40
4421;BMP180;11824;51.178;13.546;2023-04-24T03:15:26;99001.00;;;12.40
4421;BMP180;11824;51.178;13.546;2023-04-24T03:17:54;99001.00;;;12.40
4421;BMP180;11824;51.178;13.546;2023-04-24T03:20:23;99007.00;;;12.40
4421;BMP180;11824;51.178;13.546;2023-04-24T03:22:50;99002.00;;;12.40
4421;BMP180;11824;51.178;13.546;2023-04-24T03:25:19;99010.00;;;12.30
4421;BMP180;11824;51.178;13.546;2023-04-24T03:27:46;99002.00;;;12.30
4421;BMP180;11824;51.178;13.546;2023-04-24T03:30:13;99011.00;;;12.30
4421;BMP180;11824;51.178;13.546;2023-04-24T03:32:41;99014.00;;;12.30
4421;BMP180;11824;51.178;13.546;2023-04-24T03:35:08;99007.00;;;12.30
4421;BMP180;11824;51.178;13.546;2023-04-24T03:37:36;99013.00;;;12.30
4421;BMP180;11824;51.178;13.546;2023-04-24T03:40:04;99011.00;;;12.30
4421;BMP180;11824;51.178;13.546;2023-04-24T03:42:34;99022.00;;;12.30
4421;BMP180;11824;51.178;13.546;2023-04-24T03:45:05;99014.00;;;12.30
4421;BMP180;11824;51.178;13.546;2023-04-24T03:47:33;99016.00;;;12.30
4421;BMP180;11824;51.178;13.546;2023-04-24T03:50:01;99018.00;;;12.40
4421;BMP180;11824;51.178;13.546;2023-04-24T03:52:28;99034.00;;;12.40
4421;BMP180;11824;51.178;13.546;2023-04-24T03:54:55;99015.00;;;12.40
4421;BMP180;11824;51.178;13.546;2023-04-24T03:57:23;99029.00;;;12.40
4421;BMP180;11824;51.178;13.546;2023-04-24T03:59:51;99030.00;;;12.40
4421;BMP180;11824;51.178;13.546;2023-04-24T04:02:20;99028.00;;;12.50
4421;BMP180;11824;51.178;13.546;2023-04-24T04:04:47;99030.00;;;12.50
4421;BMP180;11824;51.178;13.546;2023-04-24T04:07:15;99039.00;;;12.50
4421;BMP180;11824;51.178;13.546;2023-04-24T04:09:43;99039.00;;;12.50
4421;BMP180;11824;51.178;13.546;2023-04-24T04:12:10;99032.00;;;12.50
4421;BMP180;11824;51.178;13.546;2023-04-24T04:14:37;99039.00;;;12.60
4421;BMP180;11824;51.178;13.546;2023-04-24T04:17:05;99047.00;;;12.60
4421;BMP180;11824;51.178;13.546;2023-04-24T04:19:33;99048.00;;;12.60
4421;BMP180;11824;51.178;13.546;2023-04-24T04:22:01;99048.00;;;12.60
4421;BMP180;11824;51.178;13.546;2023-04-24T04:24:29;99049.00;;;12.60
4421;BMP180;11824;51.178;13.546;2023-04-24T04:26:56;99048.00;;;12.60
4421;BMP180;11824;51.178;13.546;2023-04-24T04:29:24;99048.00;;;12.60
4421;BMP180;11824;51.178;13.546;2023-04-24T04:31:52;99050.00;;;12.60
4421;BMP180;11824;51.178;13.546;2023-04-24T04:34:21;99053.00;;;12.60
4421;BMP180;11824;51.178;13.546;2023-04-24T04:36:49;99050.00;;;12.60
4421;BMP180;11824;51.178;13.546;2023-04-24T04:39:17;99047.00;;;12.60
4421;BMP180;11824;51.178;13.546;2023-04-24T04:41:45;99047.00;;;12.70
4421;BMP180;11824;51.178;13.546;2023-04-24T04:44:16;99044.00;;;12.70
4421;BMP180;11824;51.178;13.546;2023-04-24T04:46:44;99042.00;;;12.70
4421;BMP180;11824;51.178;13.546;2023-04-24T04:49:11;99044.00;;;12.70
4421;BMP180;11824;51.178;13.546;2023-04-24T04:51:40;99051.00;;;12.80
4421;BMP180;11824;51.178;13.546;2023-04-24T04:54:09;99053.00;;;12.90
4421;BMP180;11824;51.178;13.546;2023-04-24T04:56:37;99052.00;;;13.00
4421;BMP180;11824;51.178;13.546;2023-04-24T04:59:04;99051.00;;;13.10
4421;BMP180;11824;51.178;13.546;2023-04-24T05:01:32;99058.00;;;13.20
4421;BMP180;11824;51.178;13.546;2023-04-24T05:04:00;99055.00;;;13.40
4421;BMP180;11824;51.178;13.546;2023-04-24T05:06:28;99051.00;;;13.50
4421;BMP180;11824;51.178;13.546;2023-04-24T05:08:56;99053.00;;;13.70
4421;BMP180;11824;51.178;13.546;2023-04-24T05:11:23;99063.00;;;13.80
4421;BMP180;11824;51.178;13.546;2023-04-24T05:13:51;99055.00;;;13.90
4421;BMP180;11824;51.178;13.546;2023-04-24T05:16:18;99060.00;;;14.10
4421;BMP180;11824;51.178;13.546;2023-04-24T05:18:46;99062.00;;;14.30
4421;BMP180;11824;51.178;13.546;2023-04-24T05:21:13;99057.00;;;14.40
4421;BMP180;11824;51.178;13.546;2023-04-24T05:23:41;99058.00;;;14.60
4421;BMP180;11824;51.178;13.546;2023-04-24T05:26:09;99059.00;;;14.70
4421;BMP180;11824;51.178;13.546;2023-04-24T05:28:36;99051.00;;;14.80
4421;BMP180;11824;51.178;13.546;2023-04-24T05:31:04;99052.00;;;14.90
4421;BMP180;11824;51.178;13.546;2023-04-24T05:33:31;99058.00;;;15.00
4421;BMP180;11824;51.178;13.546;2023-04-24T05:35:59;99053.00;;;15.00
4421;BMP180;11824;51.178;13.546;2023-04-24T05:38:26;99052.00;;;15.10
4421;BMP180;11824;51.178;13.546;2023-04-24T05:40:53;99059.00;;;15.10
4421;BMP180;11824;51.178;13.546;2023-04-24T05:43:21;99065.00;;;15.20
4421;BMP180;11824;51.178;13.546;2023-04-24T05:45:49;99065.00;;;15.30
4421;BMP180;11824;51.178;13.546;2023-04-24T05:48:16;99067.00;;;15.30
4421;BMP180;11824;51.178;13.546;2023-04-24T05:50:43;99070.00;;;15.40
4421;BMP180;11824;51.178;13.546;2023-04-24T05:53:11;99080.00;;;15.50
4421;BMP180;11824;51.178;13.546;2023-04-24T05:55:38;99082.00;;;15.60
4421;BMP180;11824;51.178;13.546;2023-04-24T05:58:06;99075.00;;;15.70
4421;BMP180;11824;51.178;13.546;2023-04-24T06:00:34;99087.00;;;15.80
4421;BMP180;11824;51.178;13.546;2023-04-24T06:03:02;99074.00;;;15.90
4421;BMP180;11824;51.178;13.546;2023-04-24T06:05:30;99085.00;;;16.10
4421;BMP180;11824;51.178;13.546;2023-04-24T06:07:58;99092.00;;;16.20
4421;BMP180;11824;51.178;13.546;2023-04-24T06:10:25;99092.00;;;16.30
4421;BMP180;11824;51.178;13.546;2023-04-24T06:12:53;99083.00;;;16.50
4421;BMP180;11824;51.178;13.546;2023-04-24T06:15:23;99082.00;;;16.60
4421;BMP180;11824;51.178;13.546;2023-04-24T06:17:51;99090.00;;;16.70
4421;BMP180;11824;51.178;13.546;2023-04-24T06:20:18;99090.00;;;16.90
4421;BMP180;11824;51.178;13.546;2023-04-24T06:22:45;99087.00;;;17.10
4421;BMP180;11824;51.178;13.546;2023-04-24T06:25:13;99094.00;;;17.30
4421;BMP180;11824;51.178;13.546;2023-04-24T06:27:40;99088.00;;;17.40
4421;BMP180;11824;51.178;13.546;2023-04-24T06:30:09;99089.00;;;17.50
4421;BMP180;11824;51.178;13.546;2023-04-24T06:32:36;99085.00;;;17.60
4421;BMP180;11824;51.178;13.546;2023-04-24T06:35:05;99095.00;;;17.70
4421;BMP180;11824;51.178;13.546;2023-04-24T06:37:34;99095.00;;;17.90
4421;BMP180;11824;51.178;13.546;2023-04-24T06:40:01;99093.00;;;18.00
4421;BMP180;11824;51.178;13.546;2023-04-24T06:42:28;99080.00;;;18.00
4421;BMP180;11824;51.178;13.546;2023-04-24T06:44:55;99092.00;;;18.10
4421;BMP180;11824;51.178;13.546;2023-04-24T06:47:23;99083.00;;;18.10
4421;BMP180;11824;51.178;13.546;2023-04-24T06:49:50;99081.00;;;18.10
4421;BMP180;11824;51.178;13.546;2023-04-24T06:52:20;99082.00;;;18.10
4421;BMP180;11824;51.178;13.546;2023-04-24T06:54:47;99084.00;;;18.10
4421;BMP180;11824;51.178;13.546;2023-04-24T06:57:15;99081.00;;;18.20
4421;BMP180;11824;51.178;13.546;2023-04-24T06:59:43;99081.00;;;18.20
4421;BMP180;11824;51.178;13.546;2023-04-24T07:02:11;99083.00;;;18.20
4421;BMP180;11824;51.178;13.546;2023-04-24T07:04:38;99079.00;;;18.30
4421;BMP180;11824;51.178;13.546;2023-04-24T07:07:06;99095.00;;;18.30
4421;BMP180;11824;51.178;13.546;2023-04-24T07:09:36;99086.00;;;18.30
4421;BMP180;11824;51.178;13.546;2023-04-24T07:12:05;99088.00;;;18.30
4421;BMP180;11824;51.178;13.546;2023-04-24T07:14:34;99095.00;;;18.30
4421;BMP180;11824;51.178;13.546;2023-04-24T07:17:02;99094.00;;;18.30
4421;BMP180;11824;51.178;13.546;2023-04-24T07:19:29;99106.00;;;18.40
4421;BMP180;11824;51.178;13.546;2023-04-24T07:21:57;99103.00;;;18.40
4421;BMP180;11824;51.178;13.546;2023-04-24T07:24:24;99105.00;;;18.50
4421;BMP180;11824;51.178;13.546;2023-04-24T07:26:54;99098.00;;;18.50
4421;BMP180;11824;51.178;13.546;2023-04-24T07:29:22;99104.00;;;18.50
4421;BMP180;11824;51.178;13.546;2023-04-24T07:31:49;99102.00;;;18.60
4421;BMP180;11824;51.178;13.546;2023-04-24T07:34:17;99103.00;;;18.60
4421;BMP180;11824;51.178;13.546;2023-04-24T07:36:44;99099.00;;;18.60
4421;BMP180;11824;51.178;13.546;2023-04-24T07:39:11;99103.00;;;18.60
4421;BMP180;11824;51.178;13.546;2023-04-24T07:41:39;99103.00;;;18.60
4421;BMP180;11824;51.178;13.546;2023-04-24T07:44:07;99105.00;;;18.60
4421;BMP180;11824;51.178;13.546;2023-04-24T07:46:35;99099.00;;;18.60
4421;BMP180;11824;51.178;13.546;2023-04-24T07:49:02;99110.00;;;18.70
4421;BMP180;11824;51.178;13.546;2023-04-24T07:51:40;99107.00;;;18.70
4421;BMP180;11824;51.178;13.546;2023-04-24T07:54:08;99108.00;;;18.80
4421;BMP180;11824;51.178;13.546;2023-04-24T07:56:35;99110.00;;;18.90
4421;BMP180;11824;51.178;13.546;2023-04-24T07:59:06;99114.00;;;19.00
4421;BMP180;11824;51.178;13.546;2023-04-24T08:01:33;99122.00;;;19.00
4421;BMP180;11824;51.178;13.546;2023-04-24T08:04:00;99122.00;;;19.00
4421;BMP180;11824;51.178;13.546;2023-04-24T08:06:29;99128.00;;;19.10
4421;BMP180;11824;51.178;13.546;2023-04-24T08:08:57;99134.00;;;19.10
4421;BMP180;11824;51.178;13.546;2023-04-24T08:11:24;99129.00;;;19.10
4421;BMP180;11824;51.178;13.546;2023-04-24T08:13:52;99129.00;;;19.10
4421;BMP180;11824;51.178;13.546;2023-04-24T08:16:20;99141.00;;;19.00
4421;BMP180;11824;51.178;13.546;2023-04-24T08:18:48;99139.00;;;18.90
4421;BMP180;11824;51.178;13.546;2023-04-24T08:21:15;99138.00;;;18.90
4421;BMP180;11824;51.178;13.546;2023-04-24T08:23:44;99138.00;;;18.90
4421;BMP180;11824;51.178;13.546;2023-04-24T08:26:12;99139.00;;;18.90
4421;BMP180;11824;51.178;13.546;2023-04-24T08:28:40;99142.00;;;18.90
4421;BMP180;11824;51.178;13.546;2023-04-24T08:31:08;99143.00;;;18.90
4421;BMP180;11824;51.178;13.546;2023-04-24T08:33:36;99139.00;;;19.00
4421;BMP180;11824;51.178;13.546;2023-04-24T08:36:04;99137.00;;;19.10
4421;BMP180;11824;51.178;13.546;2023-04-24T08:38:35;99145.00;;;19.20
4421;BMP180;11824;51.178;13.546;2023-04-24T08:41:07;99151.00;;;19.40
4421;BMP180;11824;51.178;13.546;2023-04-24T08:43:35;99147.00;;;19.40
4421;BMP180;11824;51.178;13.546;2023-04-24T08:46:04;99145.00;;;19.50
4421;BMP180;11824;51.178;13.546;2023-04-24T08:48:39;99147.00;;;19.50
4421;BMP180;11824;51.178;13.546;2023-04-24T08:51:07;99152.00;;;19.50
4421;BMP180;11824;51.178;13.546;2023-04-24T08:53:35;99146.00;;;19.40
4421;BMP180;11824;51.178;13.546;2023-04-24T08:56:03;99147.00;;;19.40
4421;BMP180;11824;51.178;13.546;2023-04-24T08:58:31;99144.00;;;19.50
4421;BMP180;11824;51.178;13.546;2023-04-24T09:00:58;99149.00;;;19.40
4421;BMP180;11824;51.178;13.546;2023-04-24T09:03:28;99141.00;;;19.40
4421;BMP180;11824;51.178;13.546;2023-04-24T09:05:58;99147.00;;;19.50
4421;BMP180;11824;51.178;13.546;2023-04-24T09:08:26;99143.00;;;19.50
4421;BMP180;11824;51.178;13.546;2023-04-24T09:10:55;99145.00;;;19.60
4421;BMP180;11824;51.178;13.546;2023-04-24T09:13:25;99138.00;;;19.60
4421;BMP180;11824;51.178;13.546;2023-04-24T09:15:52;99143.00;;;19.60
4421;BMP180;11824;51.178;13.546;2023-04-24T09:18:20;99139.00;;;19.60
4421;BMP180;11824;51.178;13.546;2023-04-24T09:21:02;99148.00;;;19.60
4421;BMP180;11824;51.178;13.546;2023-04-24T09:23:31;99141.00;;;19.50
4421;BMP180;11824;51.178;13.546;2023-04-24T09:26:00;99144.00;;;19.40
4421;BMP180;11824;51.178;13.546;2023-04-24T09:28:30;99141.00;;;19.30
4421;BMP180;11824;51.178;13.546;2023-04-24T09:31:07;99147.00;;;19.30
4421;BMP180;11824;51.178;13.546;2023-04-24T09:33:35;99147.00;;;19.40
4421;BMP180;11824;51.178;13.546;2023-04-24T09:36:04;99136.00;;;19.50
4421;BMP180;11824;51.178;13.546;2023-04-24T09:38:34;99147.00;;;19.70
4421;BMP180;11824;51.178;13.546;2023-04-24T09:41:02;99124.00;;;19.80
4421;BMP180;11824;51.178;13.546;2023-04-24T09:43:30;99139.00;;;19.90
4421;BMP180;11824;51.178;13.546;2023-04-24T09:45:58;99143.00;;;20.00
4421;BMP180;11824;51.178;13.546;2023-04-24T09:48:33;99149.00;;;20.10
4421;BMP180;11824;51.178;13.546;2023-04-24T09:51:02;99141.00;;;20.20
4421;BMP180;11824;51.178;13.546;2023-04-24T09:53:31;99145.00;;;20.20
4421;BMP180;11824;51.178;13.546;2023-04-24T09:56:06;99134.00;;;20.20
4421;BMP180;11824;51.178;13.546;2023-04-24T09:58:36;99146.00;;;20.20
4421;BMP180;11824;51.178;13.546;2023-04-24T10:01:04;99141.00;;;20.10
4421;BMP180;11824;51.178;13.546;2023-04-24T10:03:33;99134.00;;;20.10
4421;BMP180;11824;51.178;13.546;2023-04-24T10:06:01;99132.00;;;20.10
4421;BMP180;11824;51.178;13.546;2023-04-24T10:08:34;99138.00;;;20.10
4421;BMP180;11824;51.178;13.546;2023-04-24T10:11:04;99133.00;;;20.10
4421;BMP180;11824;51.178;13.546;2023-04-24T10:13:32;99124.00;;;20.10
4421;BMP180;11824;51.178;13.546;2023-04-24T10:16:01;99133.00;;;20.20
4421;BMP180;11824;51.178;13.546;2023-04-24T10:18:30;99131.00;;;20.30
4421;BMP180;11824;51.178;13.546;2023-04-24T10:21:00;99129.00;;;20.40
4421;BMP180;11824;51.178;13.546;2023-04-24T10:23:29;99127.00;;;20.50
4421;BMP180;11824;51.178;13.546;2023-04-24T10:25:58;99134.00;;;20.60
4421;BMP180;11824;51.178;13.546;2023-04-24T10:28:28;99132.00;;;20.70
4421;BMP180;11824;51.178;13.546;2023-04-24T10:30:59;99125.00;;;20.70
4421;BMP180;11824;51.178;13.546;2023-04-24T10:33:26;99127.00;;;20.80
4421;BMP180;11824;51.178;13.546;2023-04-24T10:35:54;99131.00;;;20.80
4421;BMP180;11824;51.178;13.546;2023-04-24T10:38:24;99122.00;;;20.70
4421;BMP180;11824;51.178;13.546;2023-04-24T10:40:54;99124.00;;;20.70
4421;BMP180;11824;51.178;13.546;2023-04-24T10:43:24;99125.00;;;20.80
4421;BMP180;11824;51.178;13.546;2023-04-24T10:46:02;99131.00;;;20.80
4421;BMP180;11824;51.178;13.546;2023-04-24T10:48:30;99123.00;;;20.80
4421;BMP180;11824;51.178;13.546;2023-04-24T10:50:57;99135.00;;;20.80
4421;BMP180;11824;51.178;13.546;2023-04-24T10:53:28;99124.00;;;20.90
4421;BMP180;11824;51.178;13.546;2023-04-24T10:55:59;99128.00;;;20.90
4421;BMP180;11824;51.178;13.546;2023-04-24T10:58:38;99133.00;;;20.90
4421;BMP180;11824;51.178;13.546;2023-04-24T11:01:06;99131.00;;;20.90
4421;BMP180;11824;51.178;13.546;2023-04-24T11:03:35;99135.00;;;20.80
4421;BMP180;11824;51.178;13.546;2023-04-24T11:06:04;99128.00;;;20.70
4421;BMP180;11824;51.178;13.546;2023-04-24T11:08:37;99136.00;;;20.60
4421;BMP180;11824;51.178;13.546;2023-04-24T11:11:09;99139.00;;;20.50
4421;BMP180;11824;51.178;13.546;2023-04-24T11:14:06;99132.00;;;20.40
4421;BMP180;11824;51.178;13.546;2023-04-24T11:16:42;99133.00;;;20.10
4421;BMP180;11824;51.178;13.546;2023-04-24T11:19:21;99134.00;;;20.00
4421;BMP180;11824;51.178;13.546;2023-04-24T11:21:56;99134.00;;;19.80
4421;BMP180;11824;51.178;13.546;2023-04-24T11:24:32;99139.00;;;19.60
4421;BMP180;11824;51.178;13.546;2023-04-24T11:27:06;99137.00;;;19.40
4421;BMP180;11824;51.178;13.546;2023-04-24T11:29:43;99129.00;;;19.40
4421;BMP180;11824;51.178;13.546;2023-04-24T11:32:25;99136.00;;;19.30
4421;BMP180;11824;51.178;13.546;2023-04-24T11:34:54;99144.00;;;19.20
4421;BMP180;11824;51.178;13.546;2023-04-24T11:37:22;99144.00;;;19.10
4421;BMP180;11824;51.178;13.546;2023-04-24T11:39:52;99143.00;;;18.90
4421;BMP180;11824;51.178;13.546;2023-04-24T11:42:21;99147.00;;;18.80
4421;BMP180;11824;51.178;13.546;2023-04-24T11:44:50;99149.00;;;18.70
4421;BMP180;11824;51.178;13.546;2023-04-24T11:47:19;99141.00;;;18.50
4421;BMP180;11824;51.178;13.546;2023-04-24T11:49:46;99150.00;;;18.50
4421;BMP180;11824;51.178;13.546;2023-04-24T11:52:16;99144.00;;;18.40
4421;BMP180;11824;51.178;13.546;2023-04-24T11:54:48;99143.00;;;18.40
4421;BMP180;11824;51.178;13.546;2023-04-24T11:57:16;99137.00;;;18.40
4421;BMP180;11824;51.178;13.546;2023-04-24T11:59:43;99138.00;;;18.50
4421;BMP180;11824;51.178;13.546;2023-04-24T12:02:21;99134.00;;;18.70
4421;BMP180;11824;51.178;13.546;2023-04-24T12:04:49;99127.00;;;18.90
4421;BMP180;11824;51.178;13.546;2023-04-24T12:07:17;99132.00;;;19.10
4421;BMP180;11824;51.178;13.546;2023-04-24T12:09:45;99144.00;;;19.20
4421;BMP180;11824;51.178;13.546;2023-04-24T12:12:15;99131.00;;;19.30
4421;BMP180;11824;51.178;13.546;2023-04-24T12:14:48;99147.00;;;19.40
4421;BMP180;11824;51.178;13.546;2023-04-24T12:17:16;99147.00;;;19.50
4421;BMP180;11824;51.178;13.546;2023-04-24T12:19:48;99138.00;;;19.60
4421;BMP180;11824;51.178;13.546;2023-04-24T12:22:17;99142.00;;;19.60
4421;BMP180;11824;51.178;13.546;2023-04-24T12:24:58;99138.00;;;19.70
4421;BMP180;11824;51.178;13.546;2023-04-24T12:27:25;99139.00;;;19.70
4421;BMP180;11824;51.178;13.546;2023-04-24T12:29:53;99142.00;;;19.80
4421;BMP180;11824;51.178;13.546;2023-04-24T12:32:22;99141.00;;;19.80
4421;BMP180;11824;51.178;13.546;2023-04-24T12:34:51;99144.00;;;19.80
4421;BMP180;11824;51.178;13.546;2023-04-24T12:37:18;99148.00;;;19.70
4421;BMP180;11824;51.178;13.546;2023-04-24T12:39:59;99160.00;;;19.70
4421;BMP180;11824;51.178;13.546;2023-04-24T12:42:28;99169.00;;;19.70
4421;BMP180;11824;51.178;13.546;2023-04-24T12:44:57;99127.00;;;19.70
4421;BMP180;11824;51.178;13.546;2023-04-24T12:47:26;99141.00;;;19.70
4421;BMP180;11824;51.178;13.546;2023-04-24T12:49:54;99156.00;;;19.60
4421;BMP180;11824;51.178;13.546;2023-04-24T12:52:22;99162.00;;;19.60
4421;BMP180;11824;51.178;13.546;2023-04-24T12:54:51;99161.00;;;19.60
4421;BMP180;11824;51.178;13.546;2023-04-24T12:57:19;99156.00;;;19.50
4421;BMP180;11824;51.178;13.546;2023-04-24T12:59:46;99154.00;;;19.50
4421;BMP180;11824;51.178;13.546;2023-04-24T13:02:14;99155.00;;;19.40
4421;BMP180;11824;51.178;13.546;2023-04-24T13:04:44;99157.00;;;19.30
4421;BMP180;11824;51.178;13.546;2023-04-24T13:07:14;99156.00;;;19.10
4421;BMP180;11824;51.178;13.546;2023-04-24T13:09:41;99149.00;;;19.00
4421;BMP180;11824;51.178;13.546;2023-04-24T13:12:09;99149.00;;;18.90
4421;BMP180;11824;51.178;13.546;2023-04-24T13:14:36;99152.00;;;18.90
4421;BMP180;11824;51.178;13.546;2023-04-24T13:17:04;99148.00;;;18.90
4421;BMP180;11824;51.178;13.546;2023-04-24T13:19:36;99146.00;;;19.00
4421;BMP180;11824;51.178;13.546;2023-04-24T13:22:04;99136.00;;;19.10
4421;BMP180;11824;51.178;13.546;2023-04-24T13:24:33;99147.00;;;19.10
4421;BMP180;11824;51.178;13.546;2023-04-24T13:27:00;99143.00;;;19.00
4421;BMP180;11824;51.178;13.546;2023-04-24T13:29:28;99149.00;;;19.00
4421;BMP180;11824;51.178;13.546;2023-04-24T13:31:56;99151.00;;;19.00
4421;BMP180;11824;51.178;13.546;2023-04-24T13:34:24;99151.00;;;19.10
4421;BMP180;11824;51.178;13.546;2023-04-24T13:36:52;99149.00;;;19.10
4421;BMP180;11824;51.178;13.546;2023-04-24T13:39:20;99141.00;;;19.10
4421;BMP180;11824;51.178;13.546;2023-04-24T13:41:48;99147.00;;;19.00
4421;BMP180;11824;51.178;13.546;2023-04-24T13:44:16;99142.00;;;18.90
4421;BMP180;11824;51.178;13.546;2023-04-24T13:46:44;99136.00;;;18.80
4421;BMP180;11824;51.178;13.546;2023-04-24T13:49:12;99134.00;;;18.60
4421;BMP180;11824;51.178;13.546;2023-04-24T13:51:40;99131.00;;;18.50
4421;BMP180;11824;51.178;13.546;2023-04-24T13:54:08;99130.00;;;18.40
4421;BMP180;11824;51.178;13.546;2023-04-24T13:56:35;99135.00;;;18.40
4421;BMP180;11824;51.178;13.546;2023-04-24T13:59:03;99134.00;;;18.50
4421;BMP180;11824;51.178;13.546;2023-04-24T14:01:30;99133.00;;;18.50
4421;BMP180;11824;51.178;13.546;2023-04-24T14:03:58;99130.00;;;18.60
4421;BMP180;11824;51.178;13.546;2023-04-24T14:06:26;99137.00;;;18.70
4421;BMP180;11824;51.178;13.546;2023-04-24T14:08:53;99140.00;;;18.70
4421;BMP180;11824;51.178;13.546;2023-04-24T14:11:21;99129.00;;;18.70
4421;BMP180;11824;51.178;13.546;2023-04-24T14:13:48;99130.00;;;18.70
4421;BMP180;11824;51.178;13.546;2023-04-24T14:16:17;99108.00;;;18.80